Time;durP1;ratioP1;P1;durP2;ratioP2;P2;SDS_P1;SDS_P2;PMS_P1;PMS_P2;Temp;Humidity;BMP_temperature;BMP_pressure;BME280_temperature;BME280_humidity;BME280_pressure;Samples;Min_cycle;Max_cycle;Signal;HPM_P1;HPM_P2
2021/04/16 05:03:58;;;;;;;43.05;32.03;;;;;;;8.80;100.00;99653.62;1829866;76;22200;-61
2021/04/16 05:06:26;;;;;;;48.90;38.05;;;;;;;8.78;100.00;99654.66;1795734;79;21761;-63
2021/04/16 05:08:59;;;;;;;53.05;38.28;;;;;;;8.80;100.00;99652.79;1789801;77;21938;-66
2021/04/16 05:11:34;;;;;;;58.50;40.67;;;;;;;8.81;100.00;99646.22;1780454;79;21004;-62
2021/04/16 05:14:09;;;;;;;58.17;42.70;;;;;;;8.85;100.00;99654.22;1757656;79;21503;-63
2021/04/16 05:16:50;;;;;;;69.47;45.40;;;;;;;8.94;100.00;99648.98;1798201;79;26634;-67
2021/04/16 05:19:26;;;;;;;71.45;46.50;;;;;;;9.04;100.00;99644.95;1763582;79;21371;-61
2021/04/16 05:22:06;;;;;;;78.42;47.20;;;;;;;9.17;100.00;99645.11;1795506;79;21164;-64
2021/04/16 05:24:52;;;;;;;71.55;45.83;;;;;;;9.31;100.00;99650.34;1769865;79;21067;-63
2021/04/16 05:27:23;;;;;;;70.85;42.65;;;;;;;9.40;100.00;99653.72;1792919;79;21633;-63
2021/04/16 05:29:54;;;;;;;67.30;42.67;;;;;;;9.47;100.00;99651.15;1797385;79;21023;-63
2021/04/16 05:32:22;;;;;;;59.90;38.90;;;;;;;9.54;100.00;99649.03;1790401;79;21067;-63
2021/04/16 05:34:54;;;;;;;61.90;37.95;;;;;;;9.63;100.00;99654.97;1791917;79;21203;-67
2021/04/16 05:37:22;;;;;;;56.28;37.00;;;;;;;9.73;100.00;99657.42;1787192;77;21019;-64
2021/04/16 05:39:51;;;;;;;54.20;38.92;;;;;;;9.82;100.00;99656.05;1793211;77;22377;-61
2021/04/16 05:42:20;;;;;;;45.23;34.67;;;;;;;9.87;100.00;99657.45;1800445;77;20976;-64
2021/04/16 05:44:49;;;;;;;40.98;30.27;;;;;;;9.89;100.00;99659.50;1801441;77;21486;-62
2021/04/16 05:47:17;;;;;;;38.85;30.02;;;;;;;9.87;99.45;99654.02;1780237;80;22262;-64
2021/04/16 05:49:46;;;;;;;39.65;35.35;;;;;;;9.86;99.27;99657.08;1794662;79;20940;-62
2021/04/16 05:52:15;;;;;;;40.85;36.25;;;;;;;9.89;99.19;99656.90;1805156;79;21554;-60
2021/04/16 05:54:44;;;;;;;43.10;35.17;;;;;;;9.93;98.55;99653.19;1809369;79;21629;-64
2021/04/16 05:57:13;;;;;;;28.50;24.45;;;;;;;9.97;98.78;99646.05;1797461;79;21566;-64
2021/04/16 05:59:46;;;;;;;27.77;23.45;;;;;;;10.02;98.61;99653.92;1793213;79;21418;-61
2021/04/16 06:02:34;;;;;;;31.12;23.62;;;;;;;10.05;98.44;99651.60;1780616;79;21554;-61
2021/04/16 06:05:07;;;;;;;28.07;24.25;;;;;;;10.10;98.19;99652.63;1781044;79;21558;-67
2021/04/16 06:07:36;;;;;;;28.60;24.52;;;;;;;10.14;97.95;99653.66;1784579;79;21035;-61
2021/04/16 06:10:07;;;;;;;28.70;25.15;;;;;;;10.12;97.49;99652.91;1781160;79;21428;-60
2021/04/16 06:12:38;;;;;;;26.90;23.18;;;;;;;10.13;97.71;99651.98;1790481;79;20933;-64
2021/04/16 06:15:14;;;;;;;27.00;22.02;;;;;;;10.17;97.96;99652.63;1790439;77;20984;-61
2021/04/16 06:17:43;;;;;;;25.88;23.05;;;;;;;10.20;98.00;99655.08;1799154;79;21035;-62
2021/04/16 06:20:13;;;;;;;31.90;26.50;;;;;;;10.25;98.18;99658.25;1797664;79;21036;-60
2021/04/16 06:22:41;;;;;;;28.38;25.35;;;;;;;10.28;98.03;99661.50;1792997;79;20993;-60
2021/04/16 06:25:11;;;;;;;26.93;23.57;;;;;;;10.32;97.82;99672.56;1791907;79;22034;-59
2021/04/16 06:27:40;;;;;;;24.82;22.02;;;;;;;10.34;97.34;99666.80;1733139;82;21031;-62
2021/04/16 06:30:10;;;;;;;25.55;22.80;;;;;;;10.33;97.11;99660.77;1728672;82;21522;-62
2021/04/16 06:32:39;;;;;;;28.17;22.93;;;;;;;10.34;97.42;99663.73;1747338;81;21199;-63
2021/04/16 06:35:08;;;;;;;24.23;21.60;;;;;;;10.38;97.69;99663.09;1738204;82;21530;-64
2021/04/16 06:37:37;;;;;;;25.15;21.70;;;;;;;10.41;97.73;99658.97;1720369;81;21204;-60
2021/04/16 06:40:06;;;;;;;19.98;17.80;;;;;;;10.44;97.34;99665.75;1722774;82;21628;-62
2021/04/16 06:42:35;;;;;;;28.17;20.70;;;;;;;10.42;97.02;99667.14;1736831;82;21559;-62
2021/04/16 06:45:09;;;;;;;42.40;24.30;;;;;;;10.40;96.77;99673.41;1731306;82;21787;-61
2021/04/16 06:47:51;;;;;;;27.62;19.32;;;;;;;10.37;96.37;99678.33;1706923;83;21476;-60
2021/04/16 06:50:20;;;;;;;29.25;19.67;;;;;;;10.32;96.45;99678.61;1723695;81;22298;-60
2021/04/16 06:52:57;;;;;;;27.95;20.32;;;;;;;10.28;96.30;99678.88;1750703;81;21068;-59
2021/04/16 06:55:51;;;;;;;21.82;16.67;;;;;;;10.25;96.51;99679.06;1753622;81;20939;-60
2021/04/16 06:58:36;;;;;;;19.90;14.85;;;;;;;10.26;96.72;99687.24;1756538;81;21979;-59
2021/04/16 07:01:31;;;;;;;18.85;15.95;;;;;;;10.25;96.94;99685.11;1751318;81;21081;-60
2021/04/16 07:04:09;;;;;;;12.68;11.38;;;;;;;10.27;96.95;99688.92;1732966;81;22206;-60
2021/04/16 07:06:38;;;;;;;12.28;10.93;;;;;;;10.28;96.53;99681.48;1720955;82;21030;-61
2021/04/16 07:09:17;;;;;;;11.10;9.90;;;;;;;10.29;96.48;99684.45;1732284;81;20970;-61
2021/04/16 07:11:51;;;;;;;11.38;10.18;;;;;;;10.34;96.24;99683.25;1782201;79;21543;-60
2021/04/16 07:14:30;;;;;;;12.60;11.20;;;;;;;10.40;95.69;99689.02;1784407;79;21045;-61
2021/04/16 07:17:01;;;;;;;13.50;12.05;;;;;;;10.43;95.68;99694.02;1774062;79;21135;-60
2021/04/16 07:19:29;;;;;;;13.48;12.18;;;;;;;10.46;95.82;99688.62;1783377;79;21109;-61
2021/04/16 07:22:06;;;;;;;11.50;10.32;;;;;;;10.52;95.86;99694.30;1782664;79;22107;-64
2021/04/16 07:24:34;;;;;;;11.38;10.28;;;;;;;10.59;95.48;99703.41;1782105;79;21007;-62
2021/04/16 07:27:22;;;;;;;11.28;10.10;;;;;;;10.62;95.33;99700.62;1777665;78;21060;-65
2021/04/16 07:29:57;;;;;;;16.05;14.38;;;;;;;10.67;95.30;99699.88;1776950;79;22329;-66
2021/04/16 07:32:37;;;;;;;34.00;25.55;;;;;;;10.73;94.98;99694.75;1777535;79;21162;-63
2021/04/16 07:35:25;;;;;;;53.30;34.55;;;;;;;10.79;94.64;99705.26;1791116;79;21111;-62
2021/04/16 07:38:16;;;;;;;34.73;25.08;;;;;;;10.83;95.13;99697.13;1782844;79;20982;-64
2021/04/16 07:40:46;;;;;;;32.93;24.98;;;;;;;10.91;95.07;99701.40;1772936;79;21617;-65
2021/04/16 07:43:45;;;;;;;21.25;17.77;;;;;;;10.93;94.35;99702.14;1778815;79;21241;-64
2021/04/16 07:46:31;;;;;;;25.23;18.52;;;;;;;10.92;94.31;99705.67;1788809;79;21740;-62
2021/04/16 07:49:19;;;;;;;27.62;22.62;;;;;;;10.94;94.74;99706.88;1779235;79;21430;-66
2021/04/16 07:51:50;;;;;;;27.67;21.75;;;;;;;10.94;94.86;99710.80;1780033;79;21620;-65
2021/04/16 07:54:26;;;;;;;21.02;18.27;;;;;;;10.94;94.37;99709.48;1794438;78;20929;-62
2021/04/16 07:57:15;;;;;;;22.40;17.60;;;;;;;10.85;93.61;99710.06;1784233;78;21245;-66
2021/04/16 08:00:01;;;;;;;19.73;15.58;;;;;;;10.77;93.48;99718.37;1782009;79;21069;-64
2021/04/16 08:02:43;;;;;;;14.90;12.23;;;;;;;10.72;94.03;99719.59;1762965;79;21025;-66
2021/04/16 08:05:29;;;;;;;15.32;13.53;;;;;;;10.77;95.11;99721.44;1782760;79;21462;-65
2021/04/16 08:08:27;;;;;;;15.45;12.45;;;;;;;10.83;94.98;99723.17;1795561;79;20994;-62
2021/04/16 08:11:09;;;;;;;19.85;13.98;;;;;;;10.86;94.55;99720.84;1786584;79;22218;-64
2021/04/16 08:13:54;;;;;;;16.42;13.58;;;;;;;10.98;94.40;99724.00;1783706;79;21202;-64
2021/04/16 08:16:38;;;;;;;;;;;;;;;11.10;93.48;99725.00;1792937;77;21252;-63
2021/04/16 08:19:29;;;;;;;18.77;12.55;;;;;;;11.24;93.33;99729.69;1782963;79;20191;-66
2021/04/16 08:22:10;;;;;;;15.30;12.00;;;;;;;11.35;91.93;99727.23;1794263;79;21104;-62
2021/04/16 08:24:57;;;;;;;15.68;12.50;;;;;;;11.43;89.24;99730.66;1790586;79;21633;-61
2021/04/16 08:27:57;;;;;;;16.30;13.10;;;;;;;11.44;88.63;99728.89;1795186;79;21585;-58
2021/04/16 08:31:02;;;;;;;17.12;13.18;;;;;;;11.48;88.65;99732.98;1799526;79;21029;-59
2021/04/16 08:33:43;;;;;;;16.10;13.43;;;;;;;11.56;88.02;99722.89;1795934;79;21628;-61
2021/04/16 08:36:22;;;;;;;17.02;13.25;;;;;;;11.63;88.43;99724.14;1779773;79;20992;-60
2021/04/16 08:39:26;;;;;;;17.90;13.38;;;;;;;11.62;87.98;99722.00;1788399;79;21194;-60
2021/04/16 08:42:13;;;;;;;17.37;14.28;;;;;;;11.60;88.14;99726.94;1798672;79;21036;-59
2021/04/16 08:44:49;;;;;;;15.53;13.05;;;;;;;11.53;87.23;99727.00;1798724;79;21043;-59
2021/04/16 08:47:31;;;;;;;14.50;11.83;;;;;;;11.40;87.35;99733.94;1789017;79;21035;-60
2021/04/16 08:50:00;;;;;;;13.32;11.50;;;;;;;11.25;87.24;99732.67;1738914;82;21545;-62
2021/04/16 08:52:34;;;;;;;13.88;12.37;;;;;;;11.12;87.92;99737.00;1738889;82;22395;-63
2021/04/16 08:55:13;;;;;;;12.33;11.00;;;;;;;11.04;88.68;99741.86;1723291;82;21602;-61
2021/04/16 08:58:01;;;;;;;12.45;10.98;;;;;;;11.00;89.35;99745.12;1744819;82;21627;-64
2021/04/16 09:00:37;;;;;;;11.38;10.20;;;;;;;10.96;89.19;99742.80;1732769;82;21661;-61
2021/04/16 09:03:19;;;;;;;12.78;10.55;;;;;;;10.90;89.18;99750.98;1743499;82;21773;-59
2021/04/16 09:06:01;;;;;;;12.37;11.10;;;;;;;10.83;89.35;99748.38;1785787;78;21561;-64
2021/04/16 09:08:41;;;;;;;14.30;12.80;;;;;;;10.77;89.52;99751.39;1775852;79;20992;-62
2021/04/16 09:11:13;;;;;;;24.20;21.70;;;;;;;10.74;90.05;99755.48;1780576;79;21072;-64
2021/04/16 09:13:47;;;;;;;16.30;14.70;;;;;;;10.71;89.78;99750.46;1787353;79;21036;-64
2021/04/16 09:16:22;;;;;;;15.18;13.13;;;;;;;10.67;89.25;99757.16;1774753;79;21026;-63
2021/04/16 09:18:54;;;;;;;16.25;13.80;;;;;;;10.62;89.35;99757.89;1778421;79;21542;-64
2021/04/16 09:21:29;;;;;;;15.93;13.48;;;;;;;10.59;89.39;99761.15;1778900;78;21630;-64
2021/04/16 09:24:03;;;;;;;16.93;14.35;;;;;;;10.59;89.27;99763.28;1777397;79;21223;-63
2021/04/16 09:26:50;;;;;;;17.10;14.35;;;;;;;10.65;89.55;99758.18;1782893;79;21013;-59
2021/04/16 09:29:33;;;;;;;15.65;14.03;;;;;;;10.79;89.15;99757.34;1794334;78;21008;-60
2021/04/16 09:32:38;;;;;;;17.25;15.43;;;;;;;10.98;88.53;99760.00;1750091;79;21404;-62
2021/04/16 09:35:28;;;;;;;15.40;13.80;;;;;;;11.17;88.75;99752.35;1766540;79;21091;-64
2021/04/16 09:38:26;;;;;;;17.80;15.90;;;;;;;11.35;86.43;99757.22;1792804;79;22191;-61
2021/04/16 09:41:20;;;;;;;17.67;14.55;;;;;;;11.46;86.23;99763.52;1782539;79;21055;-61
2021/04/16 09:44:16;;;;;;;16.62;13.90;;;;;;;11.52;85.44;99763.14;1776977;79;21047;-63
2021/04/16 09:46:50;;;;;;;15.83;13.05;;;;;;;11.56;85.20;99767.22;1782035;79;22104;-66
2021/04/16 09:49:41;;;;;;;15.75;14.15;;;;;;;11.57;84.75;99764.52;1774763;79;21013;-67
2021/04/16 09:52:36;;;;;;;15.63;14.03;;;;;;;11.61;84.41;99759.91;1783652;79;21080;-64
2021/04/16 09:55:49;;;;;;;15.95;14.00;;;;;;;11.62;83.50;99763.73;1794843;79;20985;-64
2021/04/16 09:58:43;;;;;;;16.42;13.62;;;;;;;11.68;83.32;99760.72;1740024;78;21344;-65
2021/04/16 10:01:20;;;;;;;15.23;13.50;;;;;;;11.85;83.37;99754.92;1715834;81;22100;-64
2021/04/16 10:04:15;;;;;;;13.65;12.25;;;;;;;12.05;82.46;99764.86;1715614;81;21100;-62
2021/04/16 10:06:43;;;;;;;17.52;13.95;;;;;;;12.17;79.24;99756.69;1706807;84;21039;-60
2021/04/16 10:09:23;;;;;;;13.38;11.25;;;;;;;12.28;80.62;99760.72;1717064;83;21173;-61
2021/04/16 10:12:02;;;;;;;11.70;10.45;;;;;;;12.44;78.58;99756.58;1717104;83;20983;-64
2021/04/16 10:14:37;;;;;;;12.68;11.38;;;;;;;12.57;77.76;99756.95;1717146;83;22102;-62
2021/04/16 10:17:18;;;;;;;13.55;10.20;;;;;;;12.72;77.75;99759.46;1716939;83;20985;-61
2021/04/16 10:19:52;;;;;;;11.63;10.43;;;;;;;12.80;74.28;99760.58;1717009;83;21083;-64
2021/04/16 10:22:36;;;;;;;11.25;10.23;;;;;;;12.74;74.38;99755.80;1716617;83;21493;-64
2021/04/16 11:30:11;;;;;;;25.25;18.23;;;;;;;12.19;75.87;99783.52;1799409;78;21393;-63
2021/04/16 12:38:46;;;;;;;7.20;6.60;;;;;;;12.79;70.51;99776.39;1784839;78;21624;-64
2021/04/16 12:41:22;;;;;;;12.13;7.17;;;;;;;12.87;69.67;99776.19;1788503;79;21451;-61
2021/04/16 12:43:51;;;;;;;7.60;6.90;;;;;;;12.94;69.06;99766.98;1783654;79;21221;-60
2021/04/16 12:46:22;;;;;;;7.95;7.10;;;;;;;12.97;68.43;99772.00;1775851;79;21505;-60
2021/04/16 12:48:51;;;;;;;7.45;6.80;;;;;;;12.94;68.61;99778.75;1718150;83;21187;-63
2021/04/16 12:51:21;;;;;;;8.45;7.62;;;;;;;12.92;69.17;99779.33;1736763;82;21182;-64
2021/04/16 12:53:49;;;;;;;7.80;7.05;;;;;;;12.88;70.22;99775.72;1779057;79;21574;-64
2021/04/16 12:56:22;;;;;;;8.28;7.35;;;;;;;12.86;70.01;99778.91;1785806;79;21610;-63
2021/04/16 12:58:50;;;;;;;7.30;6.60;;;;;;;12.79;70.53;99779.84;1787027;79;21002;-66
2021/04/16 13:01:26;;;;;;;7.97;7.08;;;;;;;12.77;70.88;99782.19;1719457;83;22474;-61
2021/04/16 13:03:54;;;;;;;9.00;7.75;;;;;;;12.75;71.15;99779.68;1708059;82;21613;-65
2021/04/16 13:06:37;;;;;;;8.78;7.90;;;;;;;12.76;71.19;99789.19;1736018;81;21594;-65
2021/04/16 13:09:07;;;;;;;8.38;7.58;;;;;;;12.77;71.17;99783.02;1724270;81;21077;-65
2021/04/16 13:11:35;;;;;;;9.18;8.35;;;;;;;12.81;71.36;99780.53;1736246;82;21007;-63
2021/04/16 13:14:08;;;;;;;10.30;8.18;;;;;;;12.84;71.34;99774.27;1740656;82;22252;-67
2021/04/16 13:16:39;;;;;;;9.50;8.60;;;;;;;12.89;71.23;99775.61;1756789;81;20948;-63
2021/04/16 13:19:13;;;;;;;8.35;7.55;;;;;;;12.99;70.98;99774.51;1756486;81;21043;-61
2021/04/16 13:21:42;;;;;;;8.45;7.22;;;;;;;13.06;70.23;99776.22;1733589;82;21697;-60
2021/04/16 13:24:15;;;;;;;12.20;10.35;;;;;;;13.10;68.69;99773.29;1716777;82;21137;-66
2021/04/16 13:26:44;;;;;;;8.78;7.87;;;;;;;13.12;69.14;99779.72;1737668;82;22141;-60
2021/04/16 13:29:17;;;;;;;9.55;6.97;;;;;;;13.12;71.97;99788.39;1746857;81;21552;-60
2021/04/16 13:31:46;;;;;;;6.55;5.85;;;;;;;13.08;72.24;99782.19;1737788;81;20985;-62
2021/04/16 13:34:15;;;;;;;5.70;5.25;;;;;;;13.00;71.00;99786.63;1736937;82;21130;-66
2021/04/16 13:36:44;;;;;;;6.97;5.37;;;;;;;12.85;70.44;99795.53;1748772;81;21045;-62
2021/04/16 13:39:13;;;;;;;5.62;4.90;;;;;;;12.68;70.88;99800.63;1716567;82;21947;-61
2021/04/16 13:41:42;;;;;;;4.42;4.03;;;;;;;12.54;70.61;99809.87;1748927;79;21066;-61
2021/04/16 13:44:11;;;;;;;5.28;4.80;;;;;;;12.33;69.69;99822.14;1746918;79;21649;-63
2021/04/16 13:46:42;;;;;;;5.67;5.08;;;;;;;12.04;71.14;99820.59;1743479;81;21497;-59
2021/04/16 13:49:13;;;;;;;5.28;4.78;;;;;;;11.81;72.67;99814.28;1748573;79;21037;-64
2021/04/16 13:51:42;;;;;;;6.37;4.80;;;;;;;11.63;74.01;99819.33;1752948;81;21575;-61
2021/04/16 13:54:12;;;;;;;5.33;4.83;;;;;;;11.48;75.56;99816.41;1742492;81;21687;-62
2021/04/16 13:56:41;;;;;;;5.28;4.45;;;;;;;11.35;76.38;99816.34;1737600;81;20938;-60
2021/04/16 13:59:10;;;;;;;7.55;6.75;;;;;;;11.25;77.20;99825.19;1746907;81;20952;-61
2021/04/16 14:01:41;;;;;;;8.68;6.30;;;;;;;11.17;77.73;99824.02;1761295;81;21043;-60
2021/04/16 14:04:21;;;;;;;8.70;5.90;;;;;;;11.12;78.59;99828.67;1762559;81;22202;-60
2021/04/16 14:06:49;;;;;;;7.30;6.60;;;;;;;11.09;79.29;99831.00;1758455;81;21686;-62
